createdAt,value
2023-06-21T00:00:36.907Z,99609.03
2023-06-21T00:03:06.002Z,99599.53
2023-06-21T00:05:35.260Z,99598.31
2023-06-21T00:08:04.887Z,99605.03
2023-06-21T00:10:33.843Z,99599.53
2023-06-21T00:13:09.894Z,99606.63
2023-06-21T00:15:38.585Z,99598.88
2023-06-21T00:18:10.466Z,99599.69
2023-06-21T00:20:39.592Z,99593.81
2023-06-21T00:23:09.869Z,99592.28
2023-06-21T00:25:39.658Z,99598.63
2023-06-21T00:28:08.287Z,99597.09
2023-06-21T00:30:37.007Z,99594.34
2023-06-21T00:33:05.757Z,99600.19
2023-06-21T00:35:34.339Z,99601.00
2023-06-21T00:38:02.625Z,99594.69
2023-06-21T00:40:35.618Z,99598.97
2023-06-21T00:43:05.066Z,99600.56
2023-06-21T00:45:39.474Z,99603.69
2023-06-21T00:48:07.893Z,99602.16
2023-06-21T00:50:36.025Z,99615.19
2023-06-21T00:53:04.366Z,99614.38
2023-06-21T00:55:35.125Z,99604.63
2023-06-21T00:58:04.334Z,99604.63
2023-06-21T01:00:32.670Z,99603.81
2023-06-21T01:03:01.259Z,99601.06
2023-06-21T01:05:31.740Z,99608.63
2023-06-21T01:08:07.223Z,99613.00
2023-06-21T01:10:50.728Z,99606.44
2023-06-21T01:13:30.552Z,99613.53
2023-06-21T01:16:06.336Z,99610.34
2023-06-21T01:18:36.450Z,99608.03
2023-06-21T01:21:07.209Z,99603.28
2023-06-21T01:23:52.250Z,99599.38
2023-06-21T01:26:44.597Z,99602.50
2023-06-21T01:29:16.690Z,99609.56
2023-06-21T01:31:46.708Z,99608.03
2023-06-21T01:34:15.792Z,99599.81
2023-06-21T01:36:44.534Z,99604.13
2023-06-21T01:39:12.890Z,99608.41
2023-06-21T01:41:42.192Z,99600.22
2023-06-21T01:44:11.847Z,99602.63
2023-06-21T01:46:42.405Z,99604.94
2023-06-21T01:49:11.711Z,99609.31
2023-06-21T01:51:43.987Z,99603.88
2023-06-21T01:54:13.004Z,99605.06
2023-06-21T01:56:44.184Z,99598.09
2023-06-21T01:59:12.494Z,99603.63
2023-06-21T02:01:51.670Z,99608.41
2023-06-21T02:04:21.147Z,99613.47
2023-06-21T02:06:51.704Z,99623.28
2023-06-21T02:09:21.671Z,99620.53
2023-06-21T02:11:50.813Z,99615.47
2023-06-21T02:14:19.579Z,99620.94
2023-06-21T02:16:50.964Z,99609.94
2023-06-21T02:19:20.199Z,99609.94
2023-06-21T02:21:48.568Z,99614.66
2023-06-21T02:24:16.997Z,99614.66
2023-06-21T02:26:45.407Z,99624.47
2023-06-21T02:29:13.825Z,99620.63
2023-06-21T02:31:42.155Z,99627.28
2023-06-21T02:34:11.946Z,99623.75
2023-06-21T02:36:40.831Z,99631.19
2023-06-21T02:39:09.289Z,99630.03
2023-06-21T02:41:37.351Z,99626.53
2023-06-21T02:44:06.047Z,99631.63
2023-06-21T02:46:34.893Z,99632.84
2023-06-21T02:49:03.405Z,99633.63
2023-06-21T02:51:33.116Z,99639.53
2023-06-21T02:54:01.250Z,99632.09
2023-06-21T02:56:31.628Z,99630.53
2023-06-21T02:58:59.935Z,99626.22
2023-06-21T03:01:28.192Z,99629.72
2023-06-21T03:03:56.556Z,99637.13
2023-06-21T03:06:24.909Z,99640.22
2023-06-21T03:08:54.698Z,99639.81
2023-06-21T03:11:22.921Z,99642.94
2023-06-21T03:13:51.153Z,99646.03
2023-06-21T03:16:19.498Z,99644.75
2023-06-21T03:18:47.669Z,99652.59
2023-06-21T03:21:17.903Z,99651.28
2023-06-21T03:23:46.211Z,99657.09
2023-06-21T03:26:15.996Z,99658.25
2023-06-21T03:28:44.238Z,99669.97
2023-06-21T03:31:12.656Z,99658.94
2023-06-21T03:33:40.868Z,99663.59
2023-06-21T03:36:09.131Z,99669.41
2023-06-21T03:38:37.393Z,99668.44
2023-06-21T03:41:05.578Z,99667.91
2023-06-21T03:43:35.236Z,99666.19
2023-06-21T03:46:04.035Z,99667.69
2023-06-21T03:48:32.077Z,99666.91
2023-06-21T03:51:01.013Z,99671.47
2023-06-21T03:53:29.428Z,99669.72
2023-06-21T03:55:57.465Z,99668.00
2023-06-21T03:58:25.614Z,99666.34
2023-06-21T04:00:55.063Z,99657.56
2023-06-21T04:03:23.281Z,99664.47
2023-06-21T04:05:51.643Z,99668.16
2023-06-21T04:08:19.755Z,99656.25
2023-06-21T04:10:47.989Z,99659.25
2023-06-21T04:13:16.206Z,99660.09
2023-06-21T04:15:44.521Z,99661.47
2023-06-21T04:18:13.965Z,99671.50
2023-06-21T04:20:42.134Z,99676.91
2023-06-21T04:23:10.272Z,99667.34
2023-06-21T04:25:38.354Z,99676.41
2023-06-21T04:28:06.556Z,99676.53
2023-06-21T04:30:35.967Z,99672.81
2023-06-21T04:33:04.606Z,99671.75
2023-06-21T04:35:34.606Z,99675.66
2023-06-21T04:38:02.907Z,99684.56
2023-06-21T04:40:32.086Z,99680.72
2023-06-21T04:43:02.619Z,99685.13
2023-06-21T04:45:33.106Z,99687.09
2023-06-21T04:48:01.708Z,99680.63
2023-06-21T04:50:30.764Z,99689.63
2023-06-21T04:53:00.981Z,99683.44
2023-06-21T04:55:30.349Z,99682.34
2023-06-21T04:58:00.699Z,99680.72
2023-06-21T05:00:29.701Z,99682.38
2023-06-21T05:02:58.396Z,99681.41
2023-06-21T05:05:26.826Z,99682.97
2023-06-21T05:07:55.141Z,99684.78
2023-06-21T05:10:25.432Z,99691.66
2023-06-21T05:12:54.035Z,99684.53
2023-06-21T05:15:22.560Z,99685.22
2023-06-21T05:17:50.809Z,99683.44
2023-06-21T05:20:20.954Z,99688.84
2023-06-21T05:22:50.376Z,99686.41
2023-06-21T05:25:18.614Z,99686.31
2023-06-21T05:27:48.317Z,99684.44
2023-06-21T05:30:16.988Z,99688.25
2023-06-21T05:32:45.142Z,99692.78
2023-06-21T05:35:13.387Z,99690.91
2023-06-21T05:37:41.510Z,99691.34
2023-06-21T05:40:12.583Z,99692.44
2023-06-21T05:42:40.883Z,99691.81
2023-06-21T05:45:11.782Z,99686.81
2023-06-21T05:47:40.365Z,99694.91
2023-06-21T05:50:09.251Z,99694.50
2023-06-21T05:52:37.857Z,99687.38
2023-06-21T05:55:06.641Z,99700.19
2023-06-21T05:57:34.964Z,99695.81
2023-06-21T06:00:04.831Z,99690.63
2023-06-21T06:02:35.350Z,99690.84
2023-06-21T06:05:03.587Z,99693.69
2023-06-21T06:07:32.109Z,99697.94
2023-06-21T06:10:00.547Z,99696.88
2023-06-21T06:12:28.710Z,99691.31
2023-06-21T06:14:57.356Z,99692.66
2023-06-21T06:17:26.150Z,99689.31
2023-06-21T06:19:56.143Z,99687.56
2023-06-21T06:22:25.260Z,99688.19
2023-06-21T06:24:54.251Z,99677.09
2023-06-21T06:27:22.610Z,99680.63
2023-06-21T06:29:53.380Z,99687.47
2023-06-21T06:32:21.892Z,99678.44
2023-06-21T06:34:50.853Z,99683.72
2023-06-21T06:37:23.809Z,99684.81
2023-06-21T06:39:55.194Z,99677.97
2023-06-21T06:42:23.768Z,99669.22
2023-06-21T06:44:54.569Z,99680.63
2023-06-21T06:47:23.527Z,99668.84
2023-06-21T06:49:52.700Z,99662.75
2023-06-21T06:52:22.975Z,99657.28
2023-06-21T06:54:52.353Z,99658.19
2023-06-21T06:57:33.944Z,99655.41
2023-06-21T07:00:10.611Z,99647.44
2023-06-21T07:02:39.183Z,99652.56
2023-06-21T07:05:08.178Z,99662.31
2023-06-21T07:07:38.807Z,99650.84
2023-06-21T07:10:08.172Z,99647.66
2023-06-21T07:12:36.446Z,99649.72
2023-06-21T07:15:05.064Z,99645.00
2023-06-21T07:17:33.498Z,99646.69
2023-06-21T07:20:01.848Z,99651.13
2023-06-21T07:22:30.178Z,99645.75
2023-06-21T07:25:00.195Z,99647.34
2023-06-21T07:27:29.039Z,99647.03
2023-06-21T07:29:57.972Z,99640.69
2023-06-21T07:32:31.767Z,99647.44
2023-06-21T07:35:00.407Z,99639.56
2023-06-21T07:37:29.481Z,99636.16
2023-06-21T07:39:59.267Z,99642.72
2023-06-21T07:42:27.856Z,99631.75
2023-06-21T07:44:57.243Z,99628.53
2023-06-21T07:47:25.900Z,99630.09
2023-06-21T07:49:54.623Z,99624.22
2023-06-21T07:52:23.037Z,99630.06
2023-06-21T07:54:51.425Z,99625.41
2023-06-21T07:57:21.671Z,99630.06
2023-06-21T07:59:50.088Z,99627.59
2023-06-21T08:02:19.747Z,99621.69
2023-06-21T08:04:48.619Z,99623.53
2023-06-21T08:07:18.206Z,99630.81
2023-06-21T08:09:46.534Z,99631.59
2023-06-21T08:12:15.425Z,99634.69
2023-06-21T08:14:45.800Z,99631.28
2023-06-21T08:17:15.995Z,99626.03
2023-06-21T08:19:44.590Z,99630.06
2023-06-21T08:22:13.048Z,99621.69
2023-06-21T08:24:41.393Z,99624.16
2023-06-21T08:27:10.794Z,99629.53
2023-06-21T08:29:39.231Z,99624.53
2023-06-21T08:32:09.432Z,99624.06
2023-06-21T08:34:37.862Z,99620.84
2023-06-21T08:37:07.369Z,99622.84
2023-06-21T08:39:35.654Z,99614.50
2023-06-21T08:42:04.176Z,99618.34
2023-06-21T08:44:36.058Z,99615.84
2023-06-21T08:47:09.373Z,99601.31
2023-06-21T08:49:42.023Z,99605.31
2023-06-21T08:52:13.894Z,99592.06
2023-06-21T08:54:46.084Z,99598.47
2023-06-21T08:57:20.834Z,99590.06
2023-06-21T08:59:53.326Z,99596.91
2023-06-21T09:02:35.438Z,99591.03
2023-06-21T09:05:09.045Z,99598.06
2023-06-21T09:07:39.264Z,99593.91
2023-06-21T09:10:10.808Z,99591.47
2023-06-21T09:12:42.060Z,99600.53
2023-06-21T09:15:12.796Z,99592.84
2023-06-21T09:17:46.652Z,99606.84
2023-06-21T09:20:16.424Z,99609.16
2023-06-21T09:22:47.595Z,99611.50
2023-06-21T09:25:16.347Z,99603.97
2023-06-21T09:27:44.854Z,99600.19
2023-06-21T09:32:47.406Z,99598.66
2023-06-21T09:35:15.802Z,99599.56
2023-06-21T09:37:45.869Z,99606.75
2023-06-21T09:40:15.881Z,99603.22
2023-06-21T09:42:46.294Z,99595.78
2023-06-21T09:45:19.577Z,99600.09
2023-06-21T09:47:49.782Z,99603.38
2023-06-21T09:50:18.056Z,99592.56
2023-06-21T09:52:46.632Z,99588.13
2023-06-21T09:55:15.703Z,99592.72
2023-06-21T09:57:44.400Z,99592.72
2023-06-21T10:00:14.643Z,99585.22
2023-06-21T10:02:43.545Z,99581.50
2023-06-21T10:05:20.095Z,99585.00
2023-06-21T10:07:49.141Z,99576.06
2023-06-21T10:10:21.581Z,99584.16
2023-06-21T10:12:55.719Z,99586.50
2023-06-21T10:15:25.951Z,99577.03
2023-06-21T10:20:33.499Z,99571.91
2023-06-21T10:23:04.924Z,99575.00
2023-06-21T10:25:33.956Z,99578.56
2023-06-21T10:28:03.801Z,99571.63
2023-06-21T10:30:50.796Z,99573.56
2023-06-21T10:33:19.658Z,99567.38
2023-06-21T10:35:53.991Z,99563.22
2023-06-21T10:38:38.824Z,99556.97
2023-06-21T10:41:07.956Z,99557.63
2023-06-21T10:43:46.072Z,99566.41
2023-06-21T10:46:17.033Z,99554.19
2023-06-21T10:48:50.028Z,99557.59
2023-06-21T10:51:25.591Z,99552.19
2023-06-21T10:53:57.604Z,99563.03
2023-06-21T10:56:27.260Z,99565.13
2023-06-21T10:58:55.756Z,99550.06
2023-06-21T11:01:24.977Z,99549.50
2023-06-21T11:03:55.839Z,99552.31
2023-06-21T11:06:34.097Z,99545.09
2023-06-21T11:09:11.682Z,99547.91
2023-06-21T11:11:44.605Z,99545.13
2023-06-21T11:14:13.888Z,99543.88
2023-06-21T11:16:42.100Z,99554.00
2023-06-21T11:19:14.579Z,99548.22
2023-06-21T11:21:50.807Z,99556.69
2023-06-21T11:24:20.903Z,99547.66
2023-06-21T11:26:59.842Z,99547.41
2023-06-21T11:29:30.751Z,99544.72
2023-06-21T11:32:17.950Z,99543.41
2023-06-21T11:34:57.814Z,99543.59
2023-06-21T11:37:42.358Z,99539.69
2023-06-21T11:40:11.814Z,99536.22
2023-06-21T11:42:44.703Z,99533.75
2023-06-21T11:45:29.302Z,99532.56
2023-06-21T11:48:02.170Z,99535.97
2023-06-21T11:50:36.177Z,99533.28
2023-06-21T11:53:19.914Z,99531.88
2023-06-21T11:55:49.031Z,99536.44
2023-06-21T11:58:17.517Z,99526.78
2023-06-21T12:00:47.105Z,99528.78
2023-06-21T12:03:16.465Z,99532.59
2023-06-21T12:05:46.581Z,99516.28
2023-06-21T12:08:18.238Z,99519.25
2023-06-21T12:10:47.438Z,99520.75
2023-06-21T12:13:16.633Z,99520.28
2023-06-21T12:15:50.038Z,99525.13
2023-06-21T12:18:18.640Z,99523.44
2023-06-21T12:20:46.814Z,99528.75
2023-06-21T12:23:16.438Z,99525.41
2023-06-21T12:25:46.219Z,99533.13
2023-06-21T12:28:16.052Z,99527.97
2023-06-21T12:30:52.141Z,99521.00
2023-06-21T12:33:20.833Z,99520.47
2023-06-21T12:35:49.001Z,99514.53
2023-06-21T12:38:19.672Z,99517.25
2023-06-21T12:40:55.368Z,99503.75
2023-06-21T12:43:34.966Z,99500.56
2023-06-21T12:46:05.190Z,99492.50
2023-06-21T12:48:33.683Z,99498.19
2023-06-21T12:51:02.121Z,99493.69
2023-06-21T12:53:41.240Z,99487.31
2023-06-21T12:56:10.878Z,99484.84
2023-06-21T12:58:39.857Z,99480.84
2023-06-21T13:01:08.550Z,99475.97
2023-06-21T13:03:37.262Z,99471.44
2023-06-21T13:06:05.850Z,99468.91
2023-06-21T13:08:36.358Z,99465.63
2023-06-21T13:11:06.213Z,99468.94
2023-06-21T13:13:34.448Z,99469.28
2023-06-21T13:16:03.820Z,99469.28
2023-06-21T13:18:34.934Z,99463.19
2023-06-21T13:21:03.484Z,99458.03
2023-06-21T13:23:31.562Z,99457.50
2023-06-21T13:26:01.217Z,99461.25
2023-06-21T13:28:29.487Z,99461.19
2023-06-21T13:30:58.040Z,99471.81
2023-06-21T13:33:26.495Z,99467.16
2023-06-21T13:35:55.142Z,99466.22
2023-06-21T13:38:23.853Z,99471.16
2023-06-21T13:40:52.494Z,99471.66
2023-06-21T13:43:22.031Z,99464.34
2023-06-21T13:45:50.235Z,99465.22
2023-06-21T13:48:18.972Z,99469.56
2023-06-21T13:50:47.136Z,99469.81
2023-06-21T13:53:15.281Z,99462.47
2023-06-21T13:55:43.405Z,99465.78
2023-06-21T13:58:11.500Z,99466.09
2023-06-21T14:00:41.004Z,99463.56
2023-06-21T14:03:09.363Z,99468.44
2023-06-21T14:05:37.901Z,99464.81
2023-06-21T14:08:06.553Z,99458.97
2023-06-21T14:10:34.866Z,99463.00
2023-06-21T14:13:03.194Z,99461.66
2023-06-21T14:15:31.912Z,99464.75
2023-06-21T14:18:04.687Z,99464.53
2023-06-21T14:20:34.140Z,99459.19
2023-06-21T14:23:02.457Z,99460.28
2023-06-21T14:25:31.656Z,99456.16
2023-06-21T14:28:00.058Z,99459.75
2023-06-21T14:30:29.244Z,99458.22
2023-06-21T14:32:57.862Z,99456.66
2023-06-21T14:35:27.927Z,99464.06
2023-06-21T14:37:58.859Z,99454.13
2023-06-21T14:40:27.748Z,99457.41
2023-06-21T14:42:57.436Z,99455.88
2023-06-21T14:45:32.387Z,99455.06
2023-06-21T14:48:01.922Z,99448.59
2023-06-21T14:50:32.382Z,99442.91
2023-06-21T14:53:00.758Z,99451.19
2023-06-21T14:55:29.984Z,99442.66
2023-06-21T14:57:58.447Z,99436.75
2023-06-21T15:00:27.421Z,99434.22
2023-06-21T15:02:56.590Z,99437.72
2023-06-21T15:05:25.357Z,99441.16
2023-06-21T15:07:55.053Z,99439.47
2023-06-21T15:10:23.543Z,99442.47
2023-06-21T15:13:01.494Z,99439.78
2023-06-21T15:15:31.612Z,99440.84
2023-06-21T15:18:00.961Z,99440.34
2023-06-21T15:20:29.510Z,99429.75
2023-06-21T15:22:59.539Z,99429.75
2023-06-21T15:25:28.177Z,99429.09
2023-06-21T15:27:56.881Z,99424.91
2023-06-21T15:30:25.205Z,99424.91
2023-06-21T15:32:54.964Z,99423.66
2023-06-21T15:35:23.280Z,99431.81
2023-06-21T15:37:52.082Z,99427.00
2023-06-21T15:40:21.783Z,99426.22
2023-06-21T15:42:50.002Z,99426.56
2023-06-21T15:45:18.339Z,99426.00
2023-06-21T15:47:47.437Z,99428.69
2023-06-21T15:50:16.184Z,99425.88
2023-06-21T15:52:44.364Z,99429.97
2023-06-21T15:55:12.500Z,99428.25
2023-06-21T15:57:42.655Z,99424.16
2023-06-21T16:00:11.877Z,99422.63
2023-06-21T16:02:40.353Z,99425.66
2023-06-21T16:05:11.352Z,99422.06
2023-06-21T16:07:39.841Z,99428.47
2023-06-21T16:10:09.011Z,99426.44
2023-06-21T16:12:43.373Z,99432.63
2023-06-21T16:15:12.882Z,99438.78
2023-06-21T16:17:43.013Z,99433.56
2023-06-21T16:20:12.315Z,99433.63
2023-06-21T16:22:40.751Z,99432.13
2023-06-21T16:25:09.704Z,99436.97
2023-06-21T16:27:38.164Z,99438.13
2023-06-21T16:30:09.302Z,99437.31
2023-06-21T16:32:37.909Z,99435.34
2023-06-21T16:35:09.879Z,99441.09
2023-06-21T16:37:39.296Z,99441.44
2023-06-21T16:40:10.223Z,99444.28
2023-06-21T16:42:38.491Z,99442.34
2023-06-21T16:45:11.686Z,99445.13
2023-06-21T16:47:39.907Z,99445.63
2023-06-21T16:50:08.797Z,99447.59
2023-06-21T16:52:37.073Z,99453.44
2023-06-21T16:55:07.001Z,99442.19
2023-06-21T16:57:35.595Z,99450.53
2023-06-21T17:00:04.296Z,99448.16
2023-06-21T17:02:35.483Z,99453.09
2023-06-21T17:05:03.931Z,99459.50
2023-06-21T17:07:33.288Z,99457.50
2023-06-21T17:10:01.573Z,99455.19
2023-06-21T17:12:29.674Z,99457.75
2023-06-21T17:14:59.621Z,99459.63
2023-06-21T17:17:30.677Z,99470.63
2023-06-21T17:20:00.426Z,99470.28
2023-06-21T17:22:28.812Z,99464.25
2023-06-21T17:24:58.176Z,99469.38
2023-06-21T17:27:26.509Z,99473.13
2023-06-21T17:29:54.907Z,99475.88
2023-06-21T17:32:23.185Z,99484.00
2023-06-21T17:34:53.926Z,99481.63
2023-06-21T17:37:23.592Z,99486.75
2023-06-21T17:39:51.961Z,99477.00
2023-06-21T17:42:20.220Z,99482.84
2023-06-21T17:44:48.507Z,99484.50
2023-06-21T17:47:17.235Z,99481.63
2023-06-21T17:49:45.752Z,99483.56
2023-06-21T17:52:14.079Z,99486.00
2023-06-21T17:54:43.821Z,99488.16
2023-06-21T17:57:12.147Z,99487.69
2023-06-21T17:59:40.776Z,99502.00
2023-06-21T18:02:09.204Z,99497.22
2023-06-21T18:04:37.736Z,99499.81
2023-06-21T18:07:06.621Z,99503.47
2023-06-21T18:09:35.180Z,99502.03
2023-06-21T18:12:06.954Z,99514.06
2023-06-21T18:14:35.318Z,99510.59
2023-06-21T18:17:06.655Z,99513.00
2023-06-21T18:19:35.805Z,99512.59
2023-06-21T18:22:12.912Z,99518.22
2023-06-21T18:24:42.271Z,99518.31
2023-06-21T18:27:12.951Z,99520.41
2023-06-21T18:29:53.430Z,99522.81
2023-06-21T18:32:30.056Z,99526.13
2023-06-21T18:34:59.379Z,99531.59
2023-06-21T18:37:28.288Z,99537.97
2023-06-21T18:39:59.805Z,99535.53
2023-06-21T18:42:30.819Z,99529.81
2023-06-21T18:44:59.608Z,99538.84
2023-06-21T18:47:31.821Z,99539.97
2023-06-21T18:50:03.238Z,99540.31
2023-06-21T18:52:31.877Z,99548.53
2023-06-21T18:55:00.566Z,99552.91
2023-06-21T18:57:31.042Z,99561.31
2023-06-21T19:00:02.230Z,99558.53
2023-06-21T19:02:30.893Z,99562.56
2023-06-21T19:05:02.849Z,99564.59
2023-06-21T19:07:35.872Z,99569.56
2023-06-21T19:10:05.760Z,99568.50
2023-06-21T19:12:36.647Z,99570.66
2023-06-21T19:15:07.175Z,99576.56
2023-06-21T19:17:36.589Z,99579.97
2023-06-21T19:20:05.713Z,99576.72
2023-06-21T19:22:39.265Z,99577.03
2023-06-21T19:25:08.559Z,99578.84
2023-06-21T19:27:40.607Z,99592.16
2023-06-21T19:30:10.198Z,99592.63
2023-06-21T19:32:39.957Z,99587.66
2023-06-21T19:35:12.340Z,99594.59
2023-06-21T19:37:40.763Z,99589.34
2023-06-21T19:40:12.826Z,99597.53
2023-06-21T19:42:44.964Z,99602.47
2023-06-21T19:45:16.668Z,99602.13
2023-06-21T19:47:46.210Z,99606.75
2023-06-21T19:50:15.319Z,99601.13
2023-06-21T19:52:45.863Z,99601.72
2023-06-21T19:55:15.861Z,99595.09
2023-06-21T19:57:46.011Z,99602.16
2023-06-21T20:00:16.467Z,99600.88
2023-06-21T20:02:45.447Z,99605.16
2023-06-21T20:05:14.672Z,99604.66
2023-06-21T20:07:43.355Z,99604.66
2023-06-21T20:10:12.765Z,99609.59
2023-06-21T20:12:41.342Z,99614.19
2023-06-21T20:15:12.555Z,99619.97
2023-06-21T20:17:40.715Z,99611.47
2023-06-21T20:20:10.933Z,99615.59
2023-06-21T20:22:41.189Z,99612.47
2023-06-21T20:25:10.554Z,99618.94
2023-06-21T20:27:38.709Z,99615.97
2023-06-21T20:30:08.056Z,99613.00
2023-06-21T20:32:37.756Z,99611.28
2023-06-21T20:35:06.860Z,99619.75
2023-06-21T20:37:35.270Z,99631.41
2023-06-21T20:40:04.383Z,99633.22
2023-06-21T20:42:32.619Z,99640.13
2023-06-21T20:45:02.305Z,99646.44
2023-06-21T20:47:30.773Z,99647.88
2023-06-21T20:50:00.389Z,99653.63
2023-06-21T20:52:29.086Z,99653.41
2023-06-21T20:54:57.722Z,99657.00
2023-06-21T20:57:25.983Z,99661.09
2023-06-21T20:59:54.276Z,99654.13
2023-06-21T21:02:22.523Z,99664.69
2023-06-21T21:04:52.656Z,99673.56
2023-06-21T21:07:22.133Z,99670.00
2023-06-21T21:09:50.555Z,99661.03
2023-06-21T21:12:18.837Z,99659.59
2023-06-21T21:14:47.083Z,99660.50
2023-06-21T21:17:15.179Z,99667.50
2023-06-21T21:19:43.534Z,99670.50
2023-06-21T21:22:15.343Z,99665.97
2023-06-21T21:24:45.239Z,99660.97
2023-06-21T21:27:13.923Z,99674.50
2023-06-21T21:29:42.005Z,99665.72
2023-06-21T21:32:10.810Z,99667.47
2023-06-21T21:34:38.972Z,99665.16
2023-06-21T21:37:07.671Z,99668.91
2023-06-21T21:39:36.419Z,99662.72
2023-06-21T21:42:07.614Z,99660.91
2023-06-21T21:44:35.765Z,99662.81
2023-06-21T21:47:03.882Z,99653.56
2023-06-21T21:49:32.531Z,99655.34
2023-06-21T21:52:00.686Z,99664.97
2023-06-21T21:54:28.809Z,99673.28
2023-06-21T21:56:56.952Z,99672.19
2023-06-21T21:59:26.394Z,99675.81
2023-06-21T22:01:54.578Z,99672.78
2023-06-21T22:04:22.724Z,99667.72
2023-06-21T22:06:50.888Z,99673.25
2023-06-21T22:09:19.114Z,99681.03
2023-06-21T22:11:47.230Z,99673.38
2023-06-21T22:14:16.566Z,99679.25
2023-06-21T22:16:50.969Z,99677.97
2023-06-21T22:19:19.834Z,99677.25
2023-06-21T22:21:53.813Z,99673.84
2023-06-21T22:24:23.194Z,99677.81
2023-06-21T22:26:51.837Z,99678.44
2023-06-21T22:29:21.288Z,99679.47
2023-06-21T22:31:51.428Z,99674.50
2023-06-21T22:34:20.918Z,99677.94
2023-06-21T22:36:49.440Z,99675.06
2023-06-21T22:39:17.681Z,99675.28
2023-06-21T22:41:45.916Z,99677.78
2023-06-21T22:44:14.686Z,99676.22
2023-06-21T22:46:43.580Z,99683.34
2023-06-21T22:49:13.289Z,99674.44
2023-06-21T22:51:41.531Z,99668.13
2023-06-21T22:54:12.254Z,99671.00
2023-06-21T22:56:40.694Z,99666.34
2023-06-21T22:59:09.056Z,99662.56
2023-06-21T23:01:37.464Z,99673.69
2023-06-21T23:04:06.411Z,99671.50
2023-06-21T23:06:36.362Z,99673.47
2023-06-21T23:09:05.067Z,99668.44
2023-06-21T23:11:33.396Z,99668.31
2023-06-21T23:14:01.879Z,99674.47
2023-06-21T23:16:30.207Z,99679.75
2023-06-21T23:18:59.653Z,99670.34
2023-06-21T23:21:27.743Z,99681.66
2023-06-21T23:23:57.389Z,99684.28
2023-06-21T23:26:27.132Z,99681.16
2023-06-21T23:28:56.932Z,99683.22
2023-06-21T23:31:25.676Z,99685.63
2023-06-21T23:33:53.903Z,99695.16
2023-06-21T23:36:23.834Z,99691.66
2023-06-21T23:38:56.015Z,99691.25
2023-06-21T23:41:26.466Z,99693.22
2023-06-21T23:43:59.700Z,99696.84
2023-06-21T23:46:30.834Z,99692.19
2023-06-21T23:49:00.067Z,99692.28
2023-06-21T23:51:29.109Z,99697.91
2023-06-21T23:53:57.546Z,99703.50
2023-06-21T23:56:27.792Z,99703.16
2023-06-21T23:58:56.507Z,99697.53
